createdAt,value
2022-08-19T00:00:46.767Z,99.66
2022-08-19T00:01:52.902Z,99.51
2022-08-19T00:02:50.195Z,99.66
2022-08-19T00:03:46.741Z,99.99
2022-08-19T00:04:46.744Z,99.96
2022-08-19T00:05:46.719Z,99.99
2022-08-19T00:06:46.719Z,99.99
2022-08-19T00:07:46.727Z,99.99
2022-08-19T00:08:46.700Z,99.99
2022-08-19T00:09:46.674Z,99.99
2022-08-19T00:10:47.681Z,99.99
2022-08-19T00:11:46.673Z,99.99
2022-08-19T00:12:47.078Z,99.99
2022-08-19T00:13:46.661Z,99.99
2022-08-19T00:14:46.638Z,99.99
2022-08-19T00:15:46.641Z,99.99
2022-08-19T00:16:46.632Z,99.99
2022-08-19T00:17:46.677Z,99.99
2022-08-19T00:18:46.611Z,99.99
2022-08-19T00:19:46.603Z,99.99
2022-08-19T00:20:46.600Z,99.99
2022-08-19T00:21:46.593Z,99.99
2022-08-19T00:22:46.709Z,99.99
2022-08-19T00:23:46.578Z,99.99
2022-08-19T00:24:50.757Z,99.99
2022-08-19T00:25:48.745Z,99.99
2022-08-19T00:26:46.638Z,99.99
2022-08-19T00:27:46.574Z,99.99
2022-08-19T00:28:46.540Z,99.99
2022-08-19T00:29:46.527Z,99.99
2022-08-19T00:30:47.512Z,99.99
2022-08-19T00:31:46.507Z,99.99
2022-08-19T00:32:46.616Z,99.99
2022-08-19T00:33:46.489Z,99.99
2022-08-19T00:34:46.485Z,99.99
2022-08-19T00:35:46.488Z,99.99
2022-08-19T00:36:47.469Z,99.99
2022-08-19T00:37:46.490Z,99.99
2022-08-19T00:38:46.452Z,99.99
2022-08-19T00:39:46.481Z,99.99
2022-08-19T00:40:46.437Z,99.99
2022-08-19T00:41:47.801Z,99.99
2022-08-19T00:42:47.453Z,99.99
2022-08-19T00:43:46.420Z,99.99
2022-08-19T00:44:46.410Z,99.99
2022-08-19T00:45:46.392Z,99.99
2022-08-19T00:46:55.221Z,99.99
2022-08-19T00:47:47.402Z,99.99
2022-08-19T00:48:46.363Z,99.99
2022-08-19T00:49:46.358Z,99.99
2022-08-19T00:50:51.816Z,99.99
2022-08-19T00:51:47.341Z,99.99
2022-08-19T00:52:46.538Z,99.99
2022-08-19T00:53:46.325Z,99.99
2022-08-19T00:54:49.654Z,99.99
2022-08-19T00:55:47.300Z,99.99
2022-08-19T00:56:46.300Z,99.99
2022-08-19T00:57:46.313Z,99.99
2022-08-19T00:58:46.280Z,99.99
2022-08-19T00:59:56.244Z,99.99
2022-08-19T01:00:47.261Z,99.99
2022-08-19T01:01:46.298Z,99.99
2022-08-19T01:02:46.281Z,99.99
2022-08-19T01:03:57.972Z,99.99
2022-08-19T01:04:47.230Z,99.99
2022-08-19T01:05:46.227Z,99.99
2022-08-19T01:06:46.219Z,99.99
2022-08-19T01:07:46.238Z,99.99
2022-08-19T01:08:46.203Z,99.99
2022-08-19T01:09:46.198Z,99.99
2022-08-19T01:10:46.176Z,99.99
2022-08-19T01:11:46.166Z,99.99
2022-08-19T01:12:46.200Z,99.99
2022-08-19T01:13:49.926Z,99.99
2022-08-19T01:14:46.153Z,99.99
2022-08-19T01:15:46.138Z,99.99
2022-08-19T01:16:46.134Z,99.99
2022-08-19T01:17:46.175Z,99.99
2022-08-19T01:18:46.117Z,99.99
2022-08-19T01:19:46.106Z,99.99
2022-08-19T01:20:46.100Z,99.99
2022-08-19T01:21:46.085Z,99.99
2022-08-19T01:22:46.107Z,99.99
2022-08-19T01:23:46.078Z,99.99
2022-08-19T01:24:49.578Z,99.99
2022-08-19T01:25:46.057Z,99.99
2022-08-19T01:26:46.041Z,99.99
2022-08-19T01:27:46.065Z,99.99
2022-08-19T01:28:46.028Z,99.99
2022-08-19T01:29:46.022Z,99.99
2022-08-19T01:30:50.938Z,99.99
2022-08-19T01:31:47.003Z,99.99
2022-08-19T01:32:46.026Z,99.99
2022-08-19T01:33:45.986Z,99.99
2022-08-19T01:34:45.982Z,99.99
2022-08-19T01:35:45.968Z,99.99
2022-08-19T01:36:45.959Z,99.99
2022-08-19T01:37:45.995Z,99.99
2022-08-19T01:38:45.954Z,99.99
2022-08-19T01:39:45.976Z,99.99
2022-08-19T01:40:45.926Z,99.99
2022-08-19T01:41:45.915Z,99.99
2022-08-19T01:42:46.021Z,99.99
2022-08-19T01:44:09.891Z,99.99
2022-08-19T01:44:46.879Z,99.99
2022-08-19T01:45:45.880Z,99.99
2022-08-19T01:46:45.871Z,99.99
2022-08-19T01:47:51.713Z,99.99
2022-08-19T01:48:46.857Z,99.99
2022-08-19T01:49:45.850Z,99.99
2022-08-19T01:50:45.839Z,99.99
2022-08-19T01:51:45.830Z,99.99
2022-08-19T01:52:45.820Z,99.99
2022-08-19T01:53:45.867Z,99.99
2022-08-19T01:54:45.801Z,99.99
2022-08-19T01:55:45.809Z,99.99
2022-08-19T01:56:45.798Z,99.99
2022-08-19T01:57:45.827Z,99.99
2022-08-19T01:58:45.775Z,99.99
2022-08-19T01:59:45.766Z,99.99
2022-08-19T02:00:45.751Z,99.99
2022-08-19T02:01:45.800Z,99.99
2022-08-19T02:02:45.789Z,99.99
2022-08-19T02:03:45.725Z,99.99
2022-08-19T02:04:45.731Z,99.99
2022-08-19T02:05:45.719Z,99.99
2022-08-19T02:06:45.711Z,99.99
2022-08-19T02:07:45.705Z,99.99
2022-08-19T02:08:45.718Z,99.99
2022-08-19T02:09:45.682Z,99.99
2022-08-19T02:10:45.674Z,99.99
2022-08-19T02:11:45.668Z,99.99
2022-08-19T02:12:45.657Z,99.99
2022-08-19T02:13:45.678Z,99.99
2022-08-19T02:14:45.642Z,99.99
2022-08-19T02:15:45.639Z,99.99
2022-08-19T02:16:45.628Z,99.99
2022-08-19T02:17:45.801Z,99.99
2022-08-19T02:18:45.604Z,99.99
2022-08-19T02:19:45.606Z,99.99
2022-08-19T02:20:45.589Z,99.99
2022-08-19T02:21:45.584Z,99.99
2022-08-19T02:22:45.580Z,99.99
2022-08-19T02:23:45.591Z,99.99
2022-08-19T02:24:45.554Z,99.99
2022-08-19T02:25:45.553Z,99.99
2022-08-19T02:26:45.549Z,99.99
2022-08-19T02:27:45.532Z,99.99
2022-08-19T02:28:45.563Z,99.99
2022-08-19T02:29:45.514Z,99.99
2022-08-19T02:30:45.512Z,99.99
2022-08-19T02:31:45.500Z,99.99
2022-08-19T02:32:45.588Z,99.99
2022-08-19T02:33:45.519Z,99.99
2022-08-19T02:34:45.473Z,99.99
2022-08-19T02:35:45.470Z,99.99
2022-08-19T02:36:45.461Z,99.99
2022-08-19T02:37:46.450Z,99.99
2022-08-19T02:38:47.094Z,99.99
2022-08-19T02:39:46.474Z,99.99
2022-08-19T02:40:45.427Z,99.99
2022-08-19T02:41:45.419Z,99.99
2022-08-19T02:42:45.414Z,99.99
2022-08-19T02:44:29.111Z,99.99
2022-08-19T02:44:46.396Z,99.99
2022-08-19T02:45:45.389Z,99.99
2022-08-19T02:46:45.384Z,99.99
2022-08-19T02:47:45.394Z,99.99
2022-08-19T02:48:45.412Z,99.99
2022-08-19T02:49:45.360Z,99.99
2022-08-19T02:50:51.787Z,99.99
2022-08-19T02:51:46.337Z,99.99
2022-08-19T02:52:45.334Z,99.99
2022-08-19T02:53:45.354Z,99.99
2022-08-19T02:54:45.315Z,99.99
2022-08-19T02:55:45.818Z,99.99
2022-08-19T02:56:45.296Z,99.99
2022-08-19T02:57:45.285Z,99.99
2022-08-19T02:58:45.310Z,99.99
2022-08-19T02:59:45.271Z,99.99
2022-08-19T03:00:45.271Z,99.99
2022-08-19T03:01:45.302Z,99.99
2022-08-19T03:02:45.258Z,99.99
2022-08-19T03:03:45.277Z,99.99
2022-08-19T03:04:45.228Z,99.99
2022-08-19T03:05:49.218Z,99.99
2022-08-19T03:06:46.217Z,99.99
2022-08-19T03:07:45.214Z,99.99
2022-08-19T03:08:45.232Z,99.99
2022-08-19T03:09:45.187Z,99.99
2022-08-19T03:10:45.169Z,99.99
2022-08-19T03:11:45.164Z,99.99
2022-08-19T03:12:45.160Z,99.99
2022-08-19T03:13:45.181Z,99.99
2022-08-19T03:14:45.140Z,99.99
2022-08-19T03:15:45.134Z,99.99
2022-08-19T03:16:45.129Z,99.99
2022-08-19T03:17:45.119Z,99.99
2022-08-19T03:18:45.151Z,99.99
2022-08-19T03:19:45.097Z,99.99
2022-08-19T03:20:45.099Z,99.99
2022-08-19T03:21:45.082Z,99.99
2022-08-19T03:22:45.081Z,99.99
2022-08-19T03:23:45.102Z,99.99
2022-08-19T03:24:45.075Z,99.99
2022-08-19T03:25:45.047Z,99.99
2022-08-19T03:26:45.048Z,99.99
2022-08-19T03:27:45.038Z,99.99
2022-08-19T03:28:51.110Z,99.99
2022-08-19T03:29:46.033Z,99.99
2022-08-19T03:30:45.017Z,99.99
2022-08-19T03:31:52.492Z,99.99
2022-08-19T03:32:47.081Z,99.99
2022-08-19T03:33:46.015Z,99.99
2022-08-19T03:34:44.974Z,99.99
2022-08-19T03:35:44.971Z,99.99
2022-08-19T03:36:44.955Z,99.99
2022-08-19T03:37:44.952Z,99.99
2022-08-19T03:38:44.995Z,99.99
2022-08-19T03:39:44.992Z,99.99
2022-08-19T03:40:44.925Z,99.99
2022-08-19T03:41:46.520Z,99.99
2022-08-19T03:42:49.051Z,99.99
2022-08-19T03:43:44.903Z,99.99
2022-08-19T03:44:45.062Z,99.99
2022-08-19T03:45:44.914Z,99.99
2022-08-19T03:46:44.882Z,99.99
2022-08-19T03:47:44.902Z,99.99
2022-08-19T03:48:44.869Z,99.99
2022-08-19T03:49:44.859Z,99.99
2022-08-19T03:50:44.850Z,99.99
2022-08-19T03:51:44.839Z,99.99
2022-08-19T03:52:46.850Z,99.99
2022-08-19T03:53:44.863Z,99.99
2022-08-19T03:54:44.818Z,99.99
2022-08-19T03:55:44.805Z,99.99
2022-08-19T03:56:44.800Z,99.99
2022-08-19T03:57:44.799Z,99.99
2022-08-19T03:58:44.819Z,99.99
2022-08-19T03:59:44.784Z,99.99
2022-08-19T04:00:44.768Z,99.99
2022-08-19T04:01:44.831Z,99.99
2022-08-19T04:02:58.404Z,99.99
2022-08-19T04:03:45.771Z,99.99
2022-08-19T04:04:44.780Z,99.99
2022-08-19T04:05:44.733Z,99.99
2022-08-19T04:06:44.716Z,99.99
2022-08-19T04:07:44.710Z,99.99
2022-08-19T04:08:44.732Z,99.99
2022-08-19T04:09:44.689Z,99.99
2022-08-19T04:10:44.688Z,99.99
2022-08-19T04:11:45.152Z,99.99
2022-08-19T04:12:45.667Z,99.99
2022-08-19T04:13:44.684Z,99.99
2022-08-19T04:14:44.658Z,99.99
2022-08-19T04:15:44.651Z,99.99
2022-08-19T04:16:44.640Z,99.99
2022-08-19T04:17:44.628Z,99.99
2022-08-19T04:18:44.646Z,99.99
2022-08-19T04:19:44.613Z,99.99
2022-08-19T04:20:44.602Z,99.99
2022-08-19T04:21:44.603Z,99.99
2022-08-19T04:22:44.589Z,99.99
2022-08-19T04:23:44.745Z,99.99
2022-08-19T04:24:44.565Z,99.99
2022-08-19T04:25:44.562Z,99.99
2022-08-19T04:26:44.551Z,99.99
2022-08-19T04:27:44.542Z,99.99
2022-08-19T04:28:44.568Z,99.99
2022-08-19T04:29:44.535Z,99.99
2022-08-19T04:30:44.517Z,99.99
2022-08-19T04:31:44.511Z,99.99
2022-08-19T04:32:44.495Z,99.99
2022-08-19T04:33:45.584Z,99.99
2022-08-19T04:35:02.112Z,99.99
2022-08-19T04:35:45.485Z,99.99
2022-08-19T04:36:44.473Z,99.99
2022-08-19T04:37:44.464Z,99.99
2022-08-19T04:38:44.482Z,99.99
2022-08-19T04:39:44.522Z,99.99
2022-08-19T04:40:44.439Z,99.99
2022-08-19T04:41:44.437Z,99.99
2022-08-19T04:42:44.426Z,99.99
2022-08-19T04:43:44.440Z,99.99
2022-08-19T04:44:46.358Z,99.99
2022-08-19T04:45:44.627Z,99.99
2022-08-19T04:46:51.454Z,99.99
2022-08-19T04:47:48.061Z,99.99
2022-08-19T04:48:49.380Z,99.99
2022-08-19T04:49:44.367Z,99.99
2022-08-19T04:50:44.356Z,99.99
2022-08-19T04:51:44.362Z,99.99
2022-08-19T04:52:44.336Z,99.99
2022-08-19T04:53:44.363Z,99.99
2022-08-19T04:54:44.319Z,99.99
2022-08-19T04:55:44.327Z,99.99
2022-08-19T04:56:44.303Z,99.99
2022-08-19T04:57:44.287Z,99.99
2022-08-19T04:58:44.283Z,99.99
2022-08-19T04:59:44.319Z,99.99
2022-08-19T05:00:44.358Z,99.99
2022-08-19T05:01:44.261Z,99.99
2022-08-19T05:02:44.247Z,99.99
2022-08-19T05:03:44.237Z,99.99
2022-08-19T05:04:44.272Z,99.99
2022-08-19T05:05:44.487Z,99.99
2022-08-19T05:06:45.226Z,99.99
2022-08-19T05:07:44.210Z,99.99
2022-08-19T05:08:44.236Z,99.99
2022-08-19T05:09:57.907Z,99.99
2022-08-19T05:10:45.197Z,99.99
2022-08-19T05:11:44.175Z,99.82
2022-08-19T05:12:44.168Z,99.99
2022-08-19T05:13:44.187Z,99.62
2022-08-19T05:14:44.150Z,99.62
2022-08-19T05:15:44.142Z,99.92
2022-08-19T05:16:44.137Z,99.32
2022-08-19T05:17:44.162Z,99.92
2022-08-19T05:18:44.154Z,99.52
2022-08-19T05:19:44.123Z,99.42
2022-08-19T05:20:44.118Z,99.92
2022-08-19T05:21:44.142Z,99.72
2022-08-19T05:22:44.092Z,99.87
2022-08-19T05:23:44.112Z,99.37
2022-08-19T05:25:02.419Z,99.99
2022-08-19T05:25:46.088Z,99.87
2022-08-19T05:26:44.064Z,99.37
2022-08-19T05:27:44.048Z,99.77
2022-08-19T05:28:44.064Z,99.17
2022-08-19T05:29:44.034Z,98.87
2022-08-19T05:30:47.616Z,98.77
2022-08-19T05:31:45.015Z,98.67
2022-08-19T05:32:44.010Z,98.72
2022-08-19T05:33:44.024Z,98.87
2022-08-19T05:34:43.997Z,98.43
2022-08-19T05:35:43.980Z,98.63
2022-08-19T05:36:43.978Z,98.17
2022-08-19T05:37:43.961Z,98.02
2022-08-19T05:38:43.993Z,97.62
2022-08-19T05:39:46.457Z,97.32
2022-08-19T05:40:43.944Z,97.42
2022-08-19T05:41:43.964Z,97.22
2022-08-19T05:42:44.935Z,96.72
2022-08-19T05:43:44.946Z,97.08
2022-08-19T05:44:43.908Z,97.28
2022-08-19T05:45:43.907Z,96.27
2022-08-19T05:46:43.898Z,96.47
2022-08-19T05:47:44.885Z,96.17
2022-08-19T05:48:43.903Z,95.93
2022-08-19T05:49:44.867Z,96.13
2022-08-19T05:50:43.867Z,95.07
2022-08-19T05:51:43.859Z,95.47
2022-08-19T05:52:50.229Z,95.93
2022-08-19T05:53:44.871Z,95.32
2022-08-19T05:54:43.909Z,95.03
2022-08-19T05:55:43.813Z,95.53
2022-08-19T05:56:43.822Z,95.32
2022-08-19T05:57:43.808Z,95.58
2022-08-19T05:58:43.830Z,94.58
2022-08-19T05:59:43.783Z,94.28
2022-08-19T06:00:43.792Z,94.28
2022-08-19T06:01:44.767Z,94.88
2022-08-19T06:02:43.844Z,94.78
2022-08-19T06:03:43.792Z,94.82
2022-08-19T06:04:43.845Z,94.38
2022-08-19T06:05:52.139Z,93.68
2022-08-19T06:06:44.743Z,91.67
2022-08-19T06:07:43.725Z,90.67
2022-08-19T06:08:43.783Z,91.08
2022-08-19T06:09:58.816Z,91.17
2022-08-19T06:10:44.745Z,91.53
2022-08-19T06:11:43.724Z,90.53
2022-08-19T06:12:43.722Z,89.53
2022-08-19T06:13:43.721Z,89.33
2022-08-19T06:14:43.667Z,90.23
2022-08-19T06:15:43.654Z,89.39
2022-08-19T06:16:43.652Z,89.39
2022-08-19T06:17:43.640Z,89.39
2022-08-19T06:18:43.671Z,88.69
2022-08-19T06:19:43.628Z,89.39
2022-08-19T06:20:55.386Z,88.59
2022-08-19T06:21:45.616Z,88.49
2022-08-19T06:22:43.605Z,87.55
2022-08-19T06:23:43.599Z,87.55
2022-08-19T06:24:43.611Z,87.25
2022-08-19T06:25:43.603Z,86.85
2022-08-19T06:26:43.580Z,87.25
2022-08-19T06:28:14.745Z,87.29
2022-08-19T06:28:45.563Z,87.59
2022-08-19T06:29:43.583Z,87.63
2022-08-19T06:30:43.556Z,88.09
2022-08-19T06:31:43.549Z,87.59
2022-08-19T06:32:43.522Z,87.15
2022-08-19T06:33:43.526Z,87.01
2022-08-19T06:34:43.544Z,86.91
2022-08-19T06:36:43.491Z,85.71
2022-08-19T06:37:43.959Z,85.25
2022-08-19T06:38:44.476Z,87.01
2022-08-19T06:39:43.569Z,85.71
2022-08-19T06:41:49.330Z,85.31
2022-08-19T06:42:54.244Z,85.25
2022-08-19T06:43:44.462Z,85.15
2022-08-19T06:44:48.025Z,84.41
2022-08-19T06:45:44.458Z,84.71
2022-08-19T06:46:43.411Z,84.21
2022-08-19T06:47:43.423Z,84.21
2022-08-19T06:48:45.418Z,83.51
2022-08-19T06:49:43.408Z,83.91
2022-08-19T06:50:44.392Z,85.47
2022-08-19T06:51:43.578Z,84.07
2022-08-19T06:52:43.380Z,83.17
2022-08-19T06:53:43.391Z,83.63
2022-08-19T06:54:55.347Z,82.73
2022-08-19T06:55:44.345Z,82.53
2022-08-19T06:56:43.330Z,83.07
2022-08-19T06:57:43.323Z,82.93
2022-08-19T06:58:43.315Z,84.07
2022-08-19T06:59:43.327Z,83.37
2022-08-19T07:00:43.291Z,83.61
2022-08-19T07:01:44.290Z,84.17
2022-08-19T07:02:48.139Z,82.61
2022-08-19T07:03:45.294Z,83.47
2022-08-19T07:04:43.293Z,82.97
2022-08-19T07:05:45.787Z,82.37
2022-08-19T07:06:44.720Z,82.57
2022-08-19T07:07:43.241Z,81.87
2022-08-19T07:08:43.235Z,81.93
2022-08-19T07:09:43.250Z,81.40
2022-08-19T07:10:43.211Z,80.94
2022-08-19T07:11:43.217Z,81.73
2022-08-19T07:12:43.231Z,81.99
2022-08-19T07:13:43.186Z,81.34
2022-08-19T07:14:43.214Z,81.04
2022-08-19T07:15:43.168Z,81.20
2022-08-19T07:16:43.201Z,81.04
2022-08-19T07:17:43.156Z,81.54
2022-08-19T07:18:44.369Z,81.40
2022-08-19T07:19:43.163Z,81.04
2022-08-19T07:20:43.126Z,81.43
2022-08-19T07:21:43.129Z,81.63
2022-08-19T07:22:43.152Z,82.03
2022-08-19T07:23:43.116Z,81.43
2022-08-19T07:24:51.171Z,82.34
2022-08-19T07:25:44.145Z,82.03
2022-08-19T07:26:43.090Z,82.34
2022-08-19T07:27:46.304Z,82.20
2022-08-19T07:28:46.074Z,81.84
2022-08-19T07:29:44.129Z,81.73
2022-08-19T07:30:43.056Z,81.43
2022-08-19T07:31:43.467Z,81.43
2022-08-19T07:32:43.039Z,81.37
2022-08-19T07:33:43.073Z,80.98
2022-08-19T07:34:43.071Z,82.07
2022-08-19T07:35:43.026Z,81.57
2022-08-19T07:36:43.012Z,82.47
2022-08-19T07:37:43.006Z,82.07
2022-08-19T07:38:42.988Z,82.03
2022-08-19T07:39:43.046Z,81.04
2022-08-19T07:40:42.962Z,80.83
2022-08-19T07:41:42.961Z,80.83
2022-08-19T07:42:42.950Z,80.74
2022-08-19T07:43:42.945Z,81.13
2022-08-19T07:44:49.863Z,80.90
2022-08-19T07:45:43.927Z,80.46
2022-08-19T07:46:42.918Z,79.16
2022-08-19T07:47:50.319Z,78.80
2022-08-19T07:48:43.899Z,79.60
2022-08-19T07:49:42.920Z,79.10
2022-08-19T07:50:42.886Z,79.10
2022-08-19T07:51:42.883Z,78.70
2022-08-19T07:52:42.883Z,79.20
2022-08-19T07:53:42.892Z,78.20
2022-08-19T07:54:42.855Z,79.20
2022-08-19T07:55:43.995Z,79.06
2022-08-19T07:56:43.840Z,77.13
2022-08-19T07:58:42.889Z,77.87
2022-08-19T07:59:42.869Z,77.43
2022-08-19T08:00:42.806Z,77.43
2022-08-19T08:01:42.809Z,77.20
2022-08-19T08:02:42.790Z,77.00
2022-08-19T08:03:42.818Z,76.46
2022-08-19T08:04:42.773Z,76.36
2022-08-19T08:05:43.874Z,76.06
2022-08-19T08:06:43.763Z,77.16
2022-08-19T08:07:46.507Z,76.96
2022-08-19T08:08:45.145Z,77.36
2022-08-19T08:09:43.809Z,77.89
2022-08-19T08:10:43.724Z,77.69
2022-08-19T08:11:43.713Z,76.36
2022-08-19T08:12:42.716Z,75.87
2022-08-19T08:13:42.697Z,76.00
2022-08-19T08:14:44.179Z,76.60
2022-08-19T08:15:43.247Z,76.90
2022-08-19T08:16:46.963Z,77.09
2022-08-19T08:17:49.327Z,75.46
2022-08-19T08:18:50.221Z,76.00
2022-08-19T08:19:43.673Z,76.90
2022-08-19T08:20:42.645Z,76.70
2022-08-19T08:21:42.643Z,76.50
2022-08-19T08:22:42.620Z,77.23
2022-08-19T08:23:42.655Z,78.03
2022-08-19T08:24:42.636Z,77.63
2022-08-19T08:25:42.603Z,77.13
2022-08-19T08:26:46.815Z,78.23
2022-08-19T08:27:42.694Z,78.33
2022-08-19T08:28:42.576Z,79.63
2022-08-19T08:29:43.585Z,78.92
2022-08-19T08:30:45.078Z,77.89
2022-08-19T08:31:42.555Z,77.09
2022-08-19T08:32:42.548Z,76.76
2022-08-19T08:33:42.542Z,75.43
2022-08-19T08:34:42.571Z,75.43
2022-08-19T08:35:42.524Z,75.33
2022-08-19T08:36:42.508Z,75.59
2022-08-19T08:37:42.512Z,77.22
2022-08-19T08:38:42.571Z,75.53
2022-08-19T08:39:42.544Z,75.03
2022-08-19T08:40:42.481Z,75.46
2022-08-19T08:41:42.471Z,75.73
2022-08-19T08:42:42.467Z,76.13
2022-08-19T08:43:42.450Z,76.82
2022-08-19T08:44:42.499Z,75.96
2022-08-19T08:45:42.643Z,75.96
2022-08-19T08:46:42.425Z,75.96
2022-08-19T08:47:42.424Z,76.79
2022-08-19T08:48:42.415Z,76.46
2022-08-19T08:49:42.433Z,76.76
2022-08-19T08:50:42.390Z,76.36
2022-08-19T08:52:42.380Z,75.93
2022-08-19T08:53:42.366Z,75.20
2022-08-19T08:54:54.970Z,75.83
2022-08-19T08:55:43.349Z,75.06
2022-08-19T08:56:42.359Z,75.26
2022-08-19T08:57:42.577Z,74.90
2022-08-19T08:58:42.329Z,74.86
2022-08-19T08:59:42.355Z,74.37
2022-08-19T09:00:42.314Z,72.58
2022-08-19T09:01:42.351Z,73.57
2022-08-19T09:02:43.373Z,74.99
2022-08-19T09:03:42.861Z,73.86
2022-08-19T09:04:42.286Z,73.73
2022-08-19T09:05:48.331Z,73.73
2022-08-19T09:06:43.257Z,73.20
2022-08-19T09:07:44.716Z,72.74
2022-08-19T09:08:44.281Z,73.86
2022-08-19T09:09:42.241Z,74.86
2022-08-19T09:10:44.682Z,74.86
2022-08-19T09:11:44.467Z,73.83
2022-08-19T09:12:42.889Z,73.50
2022-08-19T09:13:42.227Z,73.10
2022-08-19T09:14:51.080Z,72.50
2022-08-19T09:15:44.227Z,71.78
2022-08-19T09:16:42.192Z,71.48
2022-08-19T09:17:42.177Z,71.48
2022-08-19T09:18:42.185Z,71.91
2022-08-19T09:19:42.168Z,70.72
2022-08-19T09:20:42.931Z,70.38
2022-08-19T09:21:42.145Z,69.79
2022-08-19T09:22:42.130Z,69.85
2022-08-19T09:23:42.124Z,68.86
2022-08-19T09:24:42.115Z,68.40
2022-08-19T09:25:42.147Z,65.83
2022-08-19T09:26:48.463Z,66.56
2022-08-19T09:27:43.699Z,64.88
2022-08-19T09:28:42.086Z,64.18
2022-08-19T09:29:42.080Z,64.06
2022-08-19T09:30:42.106Z,64.45
2022-08-19T09:31:42.065Z,64.49
2022-08-19T09:32:42.056Z,62.23
2022-08-19T09:33:42.062Z,61.29
2022-08-19T09:34:44.273Z,61.03
2022-08-19T09:35:49.547Z,57.92
2022-08-19T09:36:43.027Z,57.76
2022-08-19T09:37:42.017Z,58.30
2022-08-19T09:38:43.704Z,58.72
2022-08-19T09:39:42.107Z,58.43
2022-08-19T09:40:41.999Z,57.49
2022-08-19T09:41:41.987Z,57.76
2022-08-19T09:42:50.404Z,56.10
2022-08-19T09:43:44.223Z,55.29
2022-08-19T09:44:42.002Z,55.39
2022-08-19T09:45:41.990Z,55.88
2022-08-19T09:46:41.951Z,55.29
2022-08-19T09:47:41.949Z,55.83
2022-08-19T09:48:41.946Z,56.45
2022-08-19T09:49:41.976Z,58.85
2022-08-19T09:50:52.014Z,60.52
2022-08-19T09:51:42.917Z,62.55
2022-08-19T09:52:41.901Z,61.56
2022-08-19T09:53:42.888Z,61.82
2022-08-19T09:54:44.233Z,61.88
2022-08-19T09:55:41.959Z,61.98
2022-08-19T09:56:42.491Z,63.53
2022-08-19T09:57:41.884Z,63.23
2022-08-19T09:58:41.881Z,62.44
2022-08-19T09:59:41.847Z,62.60
2022-08-19T10:00:41.885Z,61.72
2022-08-19T10:01:41.912Z,62.12
2022-08-19T10:02:41.861Z,63.40
2022-08-19T10:03:41.851Z,61.69
2022-08-19T10:04:41.832Z,61.88
2022-08-19T10:05:42.433Z,62.25
2022-08-19T10:06:45.636Z,60.94
2022-08-19T10:07:41.814Z,60.28
2022-08-19T10:08:41.833Z,63.23
2022-08-19T10:09:42.789Z,62.14
2022-08-19T10:10:43.219Z,63.26
2022-08-19T10:11:46.884Z,64.78
2022-08-19T10:12:43.769Z,62.24
2022-08-19T10:13:42.765Z,61.29
2022-08-19T10:14:41.750Z,60.44
2022-08-19T10:15:47.766Z,60.35
2022-08-19T10:16:42.978Z,59.03
2022-08-19T10:17:41.732Z,58.29
2022-08-19T10:18:44.270Z,58.54
2022-08-19T10:19:42.736Z,59.23
2022-08-19T10:20:42.762Z,60.22
2022-08-19T10:21:41.719Z,59.30
2022-08-19T10:22:41.683Z,59.66
2022-08-19T10:23:41.707Z,60.67
2022-08-19T10:24:41.690Z,60.77
2022-08-19T10:25:41.721Z,61.07
2022-08-19T10:26:41.655Z,61.26
2022-08-19T10:27:44.271Z,60.97
2022-08-19T10:28:42.753Z,61.56
2022-08-19T10:29:46.426Z,60.54
2022-08-19T10:30:42.662Z,60.22
2022-08-19T10:32:02.059Z,58.46
2022-08-19T10:32:46.342Z,58.69
2022-08-19T10:33:53.409Z,57.71
2022-08-19T10:34:48.100Z,55.41
2022-08-19T10:35:56.759Z,55.61
2022-08-19T10:36:56.094Z,55.30
2022-08-19T10:37:51.896Z,56.18
2022-08-19T10:38:52.357Z,55.44
2022-08-19T10:39:43.543Z,54.80
2022-08-19T10:40:41.581Z,53.67
2022-08-19T10:41:41.529Z,53.50
2022-08-19T10:42:41.550Z,53.64
2022-08-19T10:43:41.522Z,53.63
2022-08-19T10:44:41.520Z,53.55
2022-08-19T10:45:52.636Z,53.59
2022-08-19T10:46:46.075Z,52.47
2022-08-19T10:47:42.489Z,52.79
2022-08-19T10:48:41.499Z,51.98
2022-08-19T10:49:41.487Z,53.08
2022-08-19T10:50:41.504Z,51.59
2022-08-19T10:51:48.647Z,52.15
2022-08-19T10:52:50.111Z,53.33
2022-08-19T10:53:42.447Z,53.60
2022-08-19T10:54:41.441Z,53.83
2022-08-19T10:55:41.455Z,53.48
2022-08-19T10:56:42.434Z,53.87
2022-08-19T10:58:01.323Z,54.17
2022-08-19T10:58:43.419Z,55.08
2022-08-19T10:59:41.407Z,54.02
2022-08-19T11:00:41.430Z,55.77
2022-08-19T11:01:41.394Z,56.32
2022-08-19T11:02:41.386Z,56.52
2022-08-19T11:03:41.381Z,57.60
2022-08-19T11:04:41.439Z,55.83
2022-08-19T11:05:41.404Z,57.93
2022-08-19T11:06:41.363Z,58.20
2022-08-19T11:07:41.357Z,58.97
2022-08-19T11:08:41.352Z,58.11
2022-08-19T11:09:41.337Z,58.60
2022-08-19T11:10:41.363Z,57.86
2022-08-19T11:11:41.330Z,56.71
2022-08-19T11:12:41.313Z,57.28
2022-08-19T11:13:41.311Z,56.39
2022-08-19T11:14:41.303Z,55.55
2022-08-19T11:15:41.327Z,54.93
2022-08-19T11:16:41.284Z,54.91
2022-08-19T11:17:41.271Z,53.28
2022-08-19T11:18:41.283Z,52.62
2022-08-19T11:19:41.258Z,51.46
2022-08-19T11:20:41.284Z,49.87
2022-08-19T11:21:41.245Z,49.07
2022-08-19T11:22:41.536Z,49.12
2022-08-19T11:23:41.231Z,48.75
2022-08-19T11:24:41.225Z,49.12
2022-08-19T11:25:41.245Z,48.80
2022-08-19T11:26:41.208Z,47.19
2022-08-19T11:27:41.211Z,50.27
2022-08-19T11:28:41.227Z,50.15
2022-08-19T11:29:41.202Z,50.29
2022-08-19T11:30:41.221Z,48.65
2022-08-19T11:31:42.182Z,49.95
2022-08-19T11:32:44.478Z,49.36
2022-08-19T11:33:42.166Z,49.12
2022-08-19T11:34:42.155Z,50.00
2022-08-19T11:35:41.195Z,48.41
2022-08-19T11:36:41.156Z,46.88
2022-08-19T11:37:41.140Z,45.67
2022-08-19T11:38:41.130Z,45.67
2022-08-19T11:39:41.149Z,46.17
2022-08-19T11:40:41.147Z,46.93
2022-08-19T11:41:41.113Z,46.37
2022-08-19T11:42:41.106Z,46.24
2022-08-19T11:43:41.105Z,49.53
2022-08-19T11:44:41.087Z,51.46
2022-08-19T11:45:41.086Z,52.80
2022-08-19T11:46:41.104Z,55.08
2022-08-19T11:47:41.065Z,55.77
2022-08-19T11:48:41.066Z,56.59
2022-08-19T11:49:41.059Z,55.80
2022-08-19T11:50:41.047Z,56.32
2022-08-19T11:51:41.070Z,57.39
2022-08-19T11:52:41.033Z,58.47
2022-08-19T11:53:41.025Z,58.67
2022-08-19T11:54:41.031Z,58.87
2022-08-19T11:55:44.039Z,58.67
2022-08-19T11:56:41.038Z,59.84
2022-08-19T11:57:40.997Z,60.18
2022-08-19T11:58:40.991Z,59.75
2022-08-19T11:59:40.986Z,58.54
2022-08-19T12:00:40.980Z,58.32
2022-08-19T12:01:40.991Z,57.86
2022-08-19T12:02:40.969Z,58.83
2022-08-19T12:03:41.019Z,58.23
2022-08-19T12:04:40.968Z,56.74
2022-08-19T12:05:40.943Z,54.66
2022-08-19T12:06:41.082Z,55.80
2022-08-19T12:07:40.923Z,57.01
2022-08-19T12:08:40.928Z,57.68
2022-08-19T12:09:42.621Z,57.51
2022-08-19T12:10:40.913Z,58.20
2022-08-19T12:11:40.934Z,57.51
2022-08-19T12:12:40.900Z,58.01
2022-08-19T12:13:40.884Z,57.59
2022-08-19T12:14:40.939Z,57.56
2022-08-19T12:15:40.875Z,55.51
2022-08-19T12:16:44.776Z,53.92
2022-08-19T12:17:42.863Z,52.99
2022-08-19T12:18:40.859Z,52.13
2022-08-19T12:19:40.835Z,52.84
2022-08-19T12:20:40.835Z,52.18
2022-08-19T12:21:40.850Z,50.83
2022-08-19T12:22:40.811Z,50.42
2022-08-19T12:23:40.813Z,48.60
2022-08-19T12:24:40.797Z,48.50
2022-08-19T12:25:40.804Z,49.07
2022-08-19T12:26:53.258Z,48.63
2022-08-19T12:27:42.842Z,49.53
2022-08-19T12:28:41.784Z,49.63
2022-08-19T12:29:40.763Z,50.04
2022-08-19T12:30:40.762Z,49.82
2022-08-19T12:31:40.782Z,49.58
2022-08-19T12:32:40.742Z,46.09
2022-08-19T12:33:40.754Z,45.92
2022-08-19T12:34:40.760Z,45.73
2022-08-19T12:35:45.184Z,45.46
2022-08-19T12:36:41.737Z,45.78
2022-08-19T12:37:40.702Z,45.58
2022-08-19T12:38:40.699Z,45.36
2022-08-19T12:39:40.773Z,45.51
2022-08-19T12:40:40.688Z,45.80
2022-08-19T12:41:50.554Z,45.84
2022-08-19T12:42:41.674Z,47.63
2022-08-19T12:43:40.672Z,46.21
2022-08-19T12:44:41.602Z,46.04
2022-08-19T12:45:40.652Z,45.92
2022-08-19T12:46:40.670Z,48.21
2022-08-19T12:47:40.829Z,48.85
2022-08-19T12:48:40.626Z,49.92
2022-08-19T12:49:53.215Z,49.70
2022-08-19T12:50:41.609Z,48.80
2022-08-19T12:51:40.639Z,48.19
2022-08-19T12:52:40.606Z,48.68
2022-08-19T12:53:40.601Z,48.77
2022-08-19T12:54:40.586Z,48.94
2022-08-19T12:55:40.577Z,47.67
2022-08-19T12:56:40.605Z,49.14